sensor_id;sensor_type;location;lat;lon;timestamp;P1;durP1;ratioP1;P2;durP2;ratioP2
59530;SDS011;45349;48.692;8.186;2023-05-07T00:02:14;0.00;;;0.00;;
59530;SDS011;45349;48.692;8.186;2023-05-07T00:05:06;0.00;;;0.00;;
59530;SDS011;45349;48.692;8.186;2023-05-07T00:07:33;0.00;;;0.00;;
59530;SDS011;45349;48.692;8.186;2023-05-07T00:10:00;0.00;;;0.00;;
59530;SDS011;45349;48.692;8.186;2023-05-07T00:12:28;0.00;;;0.00;;
59530;SDS011;45349;48.692;8.186;2023-05-07T00:14:56;0.00;;;0.00;;
59530;SDS011;45349;48.692;8.186;2023-05-07T00:17:23;0.00;;;0.00;;
59530;SDS011;45349;48.692;8.186;2023-05-07T00:19:49;0.00;;;0.00;;
59530;SDS011;45349;48.692;8.186;2023-05-07T00:22:16;0.00;;;0.00;;
59530;SDS011;45349;48.692;8.186;2023-05-07T00:24:47;0.00;;;0.00;;
59530;SDS011;45349;48.692;8.186;2023-05-07T00:27:14;0.00;;;0.00;;
59530;SDS011;45349;48.692;8.186;2023-05-07T00:30:07;0.00;;;0.00;;
59530;SDS011;45349;48.692;8.186;2023-05-07T00:32:34;0.00;;;0.00;;
59530;SDS011;45349;48.692;8.186;2023-05-07T00:35:01;0.00;;;0.00;;
59530;SDS011;45349;48.692;8.186;2023-05-07T00:37:28;0.00;;;0.00;;
59530;SDS011;45349;48.692;8.186;2023-05-07T00:39:55;0.00;;;0.00;;
59530;SDS011;45349;48.692;8.186;2023-05-07T00:42:21;0.00;;;0.00;;
59530;SDS011;45349;48.692;8.186;2023-05-07T00:44:49;0.00;;;0.00;;
59530;SDS011;45349;48.692;8.186;2023-05-07T00:47:17;0.00;;;0.00;;
59530;SDS011;45349;48.692;8.186;2023-05-07T00:49:47;0.00;;;0.00;;
59530;SDS011;45349;48.692;8.186;2023-05-07T00:52:15;0.00;;;0.00;;
59530;SDS011;45349;48.692;8.186;2023-05-07T00:54:47;0.00;;;0.00;;
59530;SDS011;45349;48.692;8.186;2023-05-07T00:57:14;0.00;;;0.00;;
59530;SDS011;45349;48.692;8.186;2023-05-07T00:59:47;0.00;;;0.00;;
59530;SDS011;45349;48.692;8.186;2023-05-07T01:02:14;0.00;;;0.00;;
59530;SDS011;45349;48.692;8.186;2023-05-07T01:04:47;0.00;;;0.00;;
59530;SDS011;45349;48.692;8.186;2023-05-07T01:07:13;0.00;;;0.00;;
59530;SDS011;45349;48.692;8.186;2023-05-07T01:09:47;0.00;;;0.00;;
59530;SDS011;45349;48.692;8.186;2023-05-07T01:12:14;0.00;;;0.00;;
59530;SDS011;45349;48.692;8.186;2023-05-07T01:14:47;0.00;;;0.00;;
59530;SDS011;45349;48.692;8.186;2023-05-07T01:17:15;0.00;;;0.00;;
59530;SDS011;45349;48.692;8.186;2023-05-07T01:19:49;0.00;;;0.00;;
59530;SDS011;45349;48.692;8.186;2023-05-07T01:22:18;0.00;;;0.00;;
59530;SDS011;45349;48.692;8.186;2023-05-07T01:24:55;0.00;;;0.00;;
59530;SDS011;45349;48.692;8.186;2023-05-07T01:27:21;0.00;;;0.00;;
59530;SDS011;45349;48.692;8.186;2023-05-07T01:29:50;0.00;;;0.00;;
59530;SDS011;45349;48.692;8.186;2023-05-07T01:32:17;0.00;;;0.00;;
59530;SDS011;45349;48.692;8.186;2023-05-07T01:34:51;0.00;;;0.00;;
59530;SDS011;45349;48.692;8.186;2023-05-07T01:37:19;0.00;;;0.00;;
59530;SDS011;45349;48.692;8.186;2023-05-07T01:39:48;0.00;;;0.00;;
59530;SDS011;45349;48.692;8.186;2023-05-07T01:42:16;0.00;;;0.00;;
59530;SDS011;45349;48.692;8.186;2023-05-07T01:44:47;0.00;;;0.00;;
59530;SDS011;45349;48.692;8.186;2023-05-07T01:47:14;0.00;;;0.00;;
59530;SDS011;45349;48.692;8.186;2023-05-07T01:49:47;0.00;;;0.00;;
59530;SDS011;45349;48.692;8.186;2023-05-07T01:52:14;0.00;;;0.00;;
59530;SDS011;45349;48.692;8.186;2023-05-07T01:55:07;0.00;;;0.00;;
59530;SDS011;45349;48.692;8.186;2023-05-07T01:57:34;0.00;;;0.00;;
59530;SDS011;45349;48.692;8.186;2023-05-07T02:00:01;0.00;;;0.00;;
59530;SDS011;45349;48.692;8.186;2023-05-07T02:02:40;0.00;;;0.00;;
59530;SDS011;45349;48.692;8.186;2023-05-07T02:05:15;0.00;;;0.00;;
59530;SDS011;45349;48.692;8.186;2023-05-07T02:07:45;0.00;;;0.00;;
59530;SDS011;45349;48.692;8.186;2023-05-07T02:10:15;0.00;;;0.00;;
59530;SDS011;45349;48.692;8.186;2023-05-07T02:12:42;0.00;;;0.00;;
59530;SDS011;45349;48.692;8.186;2023-05-07T02:15:09;0.00;;;0.00;;
59530;SDS011;45349;48.692;8.186;2023-05-07T02:20:06;0.00;;;0.00;;
59530;SDS011;45349;48.692;8.186;2023-05-07T02:22:38;0.00;;;0.00;;
59530;SDS011;45349;48.692;8.186;2023-05-07T02:25:05;0.00;;;0.00;;
59530;SDS011;45349;48.692;8.186;2023-05-07T02:27:34;0.00;;;0.00;;
59530;SDS011;45349;48.692;8.186;2023-05-07T02:30:01;0.00;;;0.00;;
59530;SDS011;45349;48.692;8.186;2023-05-07T02:32:28;0.00;;;0.00;;
59530;SDS011;45349;48.692;8.186;2023-05-07T02:34:55;0.00;;;0.00;;
59530;SDS011;45349;48.692;8.186;2023-05-07T02:37:21;0.00;;;0.00;;
59530;SDS011;45349;48.692;8.186;2023-05-07T02:39:48;0.00;;;0.00;;
59530;SDS011;45349;48.692;8.186;2023-05-07T02:42:15;0.00;;;0.00;;
59530;SDS011;45349;48.692;8.186;2023-05-07T02:44:48;0.00;;;0.00;;
59530;SDS011;45349;48.692;8.186;2023-05-07T02:47:16;0.00;;;0.00;;
59530;SDS011;45349;48.692;8.186;2023-05-07T02:49:47;0.00;;;0.00;;
59530;SDS011;45349;48.692;8.186;2023-05-07T02:52:14;0.00;;;0.00;;
59530;SDS011;45349;48.692;8.186;2023-05-07T02:55:05;0.00;;;0.00;;
59530;SDS011;45349;48.692;8.186;2023-05-07T02:57:32;0.00;;;0.00;;
59530;SDS011;45349;48.692;8.186;2023-05-07T03:00:06;0.00;;;0.00;;
59530;SDS011;45349;48.692;8.186;2023-05-07T03:02:37;0.00;;;0.00;;
59530;SDS011;45349;48.692;8.186;2023-05-07T03:05:05;0.00;;;0.00;;
59530;SDS011;45349;48.692;8.186;2023-05-07T03:07:32;0.00;;;0.00;;
59530;SDS011;45349;48.692;8.186;2023-05-07T03:09:58;0.00;;;0.00;;
59530;SDS011;45349;48.692;8.186;2023-05-07T03:12:25;0.00;;;0.00;;
59530;SDS011;45349;48.692;8.186;2023-05-07T03:14:52;0.00;;;0.00;;
59530;SDS011;45349;48.692;8.186;2023-05-07T03:17:20;0.00;;;0.00;;
59530;SDS011;45349;48.692;8.186;2023-05-07T03:19:47;0.00;;;0.00;;
59530;SDS011;45349;48.692;8.186;2023-05-07T03:22:14;0.00;;;0.00;;
59530;SDS011;45349;48.692;8.186;2023-05-07T03:24:45;0.00;;;0.00;;
59530;SDS011;45349;48.692;8.186;2023-05-07T03:27:12;0.00;;;0.00;;
59530;SDS011;45349;48.692;8.186;2023-05-07T03:29:39;0.00;;;0.00;;
59530;SDS011;45349;48.692;8.186;2023-05-07T03:32:05;0.00;;;0.00;;
59530;SDS011;45349;48.692;8.186;2023-05-07T03:34:34;0.00;;;0.00;;
59530;SDS011;45349;48.692;8.186;2023-05-07T03:37:00;0.00;;;0.00;;
59530;SDS011;45349;48.692;8.186;2023-05-07T03:39:27;0.00;;;0.00;;
59530;SDS011;45349;48.692;8.186;2023-05-07T03:41:53;0.00;;;0.00;;
59530;SDS011;45349;48.692;8.186;2023-05-07T03:44:20;0.00;;;0.00;;
59530;SDS011;45349;48.692;8.186;2023-05-07T03:46:49;0.00;;;0.00;;
59530;SDS011;45349;48.692;8.186;2023-05-07T03:49:16;0.00;;;0.00;;
59530;SDS011;45349;48.692;8.186;2023-05-07T03:51:44;0.00;;;0.00;;
59530;SDS011;45349;48.692;8.186;2023-05-07T03:54:10;0.00;;;0.00;;
59530;SDS011;45349;48.692;8.186;2023-05-07T03:56:41;0.00;;;0.00;;
59530;SDS011;45349;48.692;8.186;2023-05-07T03:59:08;0.00;;;0.00;;
59530;SDS011;45349;48.692;8.186;2023-05-07T04:01:35;0.00;;;0.00;;
59530;SDS011;45349;48.692;8.186;2023-05-07T04:04:01;0.00;;;0.00;;
59530;SDS011;45349;48.692;8.186;2023-05-07T04:06:29;0.00;;;0.00;;
59530;SDS011;45349;48.692;8.186;2023-05-07T04:08:58;0.00;;;0.00;;
59530;SDS011;45349;48.692;8.186;2023-05-07T04:11:26;0.00;;;0.00;;
59530;SDS011;45349;48.692;8.186;2023-05-07T04:13:53;0.00;;;0.00;;
59530;SDS011;45349;48.692;8.186;2023-05-07T04:16:22;0.00;;;0.00;;
59530;SDS011;45349;48.692;8.186;2023-05-07T04:18:48;0.00;;;0.00;;
59530;SDS011;45349;48.692;8.186;2023-05-07T04:21:16;0.00;;;0.00;;
59530;SDS011;45349;48.692;8.186;2023-05-07T04:23:43;0.00;;;0.00;;
59530;SDS011;45349;48.692;8.186;2023-05-07T04:26:13;0.00;;;0.00;;
59530;SDS011;45349;48.692;8.186;2023-05-07T04:28:42;0.00;;;0.00;;
59530;SDS011;45349;48.692;8.186;2023-05-07T04:31:09;0.00;;;0.00;;
59530;SDS011;45349;48.692;8.186;2023-05-07T04:33:37;0.00;;;0.00;;
59530;SDS011;45349;48.692;8.186;2023-05-07T04:36:06;0.00;;;0.00;;
59530;SDS011;45349;48.692;8.186;2023-05-07T04:38:38;0.00;;;0.00;;
59530;SDS011;45349;48.692;8.186;2023-05-07T04:41:06;0.00;;;0.00;;
59530;SDS011;45349;48.692;8.186;2023-05-07T04:43:38;0.00;;;0.00;;
59530;SDS011;45349;48.692;8.186;2023-05-07T04:46:05;0.00;;;0.00;;
59530;SDS011;45349;48.692;8.186;2023-05-07T04:48:31;0.00;;;0.00;;
59530;SDS011;45349;48.692;8.186;2023-05-07T04:50:59;0.00;;;0.00;;
59530;SDS011;45349;48.692;8.186;2023-05-07T04:53:26;0.00;;;0.00;;
59530;SDS011;45349;48.692;8.186;2023-05-07T04:55:55;0.00;;;0.00;;
59530;SDS011;45349;48.692;8.186;2023-05-07T04:58:24;0.00;;;0.00;;
59530;SDS011;45349;48.692;8.186;2023-05-07T05:00:52;0.00;;;0.00;;
59530;SDS011;45349;48.692;8.186;2023-05-07T05:03:19;0.00;;;0.00;;
59530;SDS011;45349;48.692;8.186;2023-05-07T05:05:46;0.00;;;0.00;;
59530;SDS011;45349;48.692;8.186;2023-05-07T05:08:13;0.00;;;0.00;;
59530;SDS011;45349;48.692;8.186;2023-05-07T05:10:41;0.00;;;0.00;;
59530;SDS011;45349;48.692;8.186;2023-05-07T05:13:09;0.00;;;0.00;;
59530;SDS011;45349;48.692;8.186;2023-05-07T05:15:37;0.00;;;0.00;;
59530;SDS011;45349;48.692;8.186;2023-05-07T05:18:06;0.00;;;0.00;;
59530;SDS011;45349;48.692;8.186;2023-05-07T05:20:32;0.00;;;0.00;;
59530;SDS011;45349;48.692;8.186;2023-05-07T05:22:59;5.07;;;2.30;;
59530;SDS011;45349;48.692;8.186;2023-05-07T05:25:26;4.93;;;3.97;;
59530;SDS011;45349;48.692;8.186;2023-05-07T05:27:53;6.77;;;4.90;;
59530;SDS011;45349;48.692;8.186;2023-05-07T05:30:20;6.80;;;5.47;;
59530;SDS011;45349;48.692;8.186;2023-05-07T05:32:47;7.70;;;6.00;;
59530;SDS011;45349;48.692;8.186;2023-05-07T05:35:15;8.80;;;5.80;;
59530;SDS011;45349;48.692;8.186;2023-05-07T05:37:42;10.30;;;8.40;;
59530;SDS011;45349;48.692;8.186;2023-05-07T05:40:09;9.40;;;7.37;;
59530;SDS011;45349;48.692;8.186;2023-05-07T05:42:37;11.63;;;6.90;;
59530;SDS011;45349;48.692;8.186;2023-05-07T05:45:04;9.97;;;6.87;;
59530;SDS011;45349;48.692;8.186;2023-05-07T05:47:33;13.57;;;8.03;;
59530;SDS011;45349;48.692;8.186;2023-05-07T05:50:00;10.17;;;7.43;;
59530;SDS011;45349;48.692;8.186;2023-05-07T05:52:28;9.17;;;6.23;;
59530;SDS011;45349;48.692;8.186;2023-05-07T05:54:55;6.03;;;5.40;;
59530;SDS011;45349;48.692;8.186;2023-05-07T05:57:22;7.83;;;5.70;;
59530;SDS011;45349;48.692;8.186;2023-05-07T05:59:49;6.73;;;5.60;;
59530;SDS011;45349;48.692;8.186;2023-05-07T06:02:15;8.33;;;6.07;;
59530;SDS011;45349;48.692;8.186;2023-05-07T06:04:47;7.63;;;5.33;;
59530;SDS011;45349;48.692;8.186;2023-05-07T06:07:17;7.20;;;5.17;;
59530;SDS011;45349;48.692;8.186;2023-05-07T06:09:49;7.43;;;5.47;;
59530;SDS011;45349;48.692;8.186;2023-05-07T06:12:16;6.67;;;5.30;;
59530;SDS011;45349;48.692;8.186;2023-05-07T06:14:48;11.27;;;5.90;;
59530;SDS011;45349;48.692;8.186;2023-05-07T06:17:15;12.37;;;5.50;;
59530;SDS011;45349;48.692;8.186;2023-05-07T06:19:49;5.97;;;5.37;;
59530;SDS011;45349;48.692;8.186;2023-05-07T06:22:18;6.07;;;4.30;;
59530;SDS011;45349;48.692;8.186;2023-05-07T06:24:47;8.93;;;6.03;;
59530;SDS011;45349;48.692;8.186;2023-05-07T06:27:15;8.37;;;6.83;;
59530;SDS011;45349;48.692;8.186;2023-05-07T06:29:50;10.53;;;7.50;;
59530;SDS011;45349;48.692;8.186;2023-05-07T06:32:18;10.23;;;7.90;;
59530;SDS011;45349;48.692;8.186;2023-05-07T06:34:48;10.77;;;7.83;;
59530;SDS011;45349;48.692;8.186;2023-05-07T06:37:15;10.57;;;8.07;;
59530;SDS011;45349;48.692;8.186;2023-05-07T06:39:57;9.80;;;8.03;;
59530;SDS011;45349;48.692;8.186;2023-05-07T06:42:26;11.13;;;8.63;;
59530;SDS011;45349;48.692;8.186;2023-05-07T06:44:57;11.53;;;8.73;;
59530;SDS011;45349;48.692;8.186;2023-05-07T06:47:25;9.40;;;7.80;;
59530;SDS011;45349;48.692;8.186;2023-05-07T06:49:53;12.23;;;8.30;;
59530;SDS011;45349;48.692;8.186;2023-05-07T06:52:23;9.37;;;7.30;;
59530;SDS011;45349;48.692;8.186;2023-05-07T06:54:50;11.23;;;7.77;;
59530;SDS011;45349;48.692;8.186;2023-05-07T06:57:19;9.33;;;7.67;;
59530;SDS011;45349;48.692;8.186;2023-05-07T06:59:49;9.00;;;7.20;;
59530;SDS011;45349;48.692;8.186;2023-05-07T07:02:17;8.80;;;6.53;;
59530;SDS011;45349;48.692;8.186;2023-05-07T07:04:49;8.17;;;7.13;;
59530;SDS011;45349;48.692;8.186;2023-05-07T07:07:16;9.70;;;6.70;;
59530;SDS011;45349;48.692;8.186;2023-05-07T07:09:49;9.57;;;6.90;;
59530;SDS011;45349;48.692;8.186;2023-05-07T07:12:18;8.90;;;6.67;;
59530;SDS011;45349;48.692;8.186;2023-05-07T07:14:47;7.13;;;6.40;;
59530;SDS011;45349;48.692;8.186;2023-05-07T07:17:15;8.40;;;6.70;;
59530;SDS011;45349;48.692;8.186;2023-05-07T07:19:47;11.83;;;6.63;;
59530;SDS011;45349;48.692;8.186;2023-05-07T07:22:14;11.30;;;7.27;;
59530;SDS011;45349;48.692;8.186;2023-05-07T07:25:06;7.37;;;6.20;;
59530;SDS011;45349;48.692;8.186;2023-05-07T07:27:33;9.93;;;6.43;;
59530;SDS011;45349;48.692;8.186;2023-05-07T07:30:00;8.77;;;6.27;;
59530;SDS011;45349;48.692;8.186;2023-05-07T07:32:31;8.47;;;5.90;;
59530;SDS011;45349;48.692;8.186;2023-05-07T07:34:59;9.10;;;5.83;;
59530;SDS011;45349;48.692;8.186;2023-05-07T07:37:26;6.50;;;5.60;;
59530;SDS011;45349;48.692;8.186;2023-05-07T07:39:54;6.93;;;5.17;;
59530;SDS011;45349;48.692;8.186;2023-05-07T07:42:21;6.70;;;5.30;;
59530;SDS011;45349;48.692;8.186;2023-05-07T07:44:48;6.70;;;5.57;;
59530;SDS011;45349;48.692;8.186;2023-05-07T07:47:18;8.83;;;5.20;;
59530;SDS011;45349;48.692;8.186;2023-05-07T07:49:50;8.23;;;5.73;;
59530;SDS011;45349;48.692;8.186;2023-05-07T07:52:17;9.93;;;5.83;;
59530;SDS011;45349;48.692;8.186;2023-05-07T07:54:47;10.73;;;5.60;;
59530;SDS011;45349;48.692;8.186;2023-05-07T07:57:14;5.90;;;5.30;;
59530;SDS011;45349;48.692;8.186;2023-05-07T08:00:06;6.23;;;5.47;;
59530;SDS011;45349;48.692;8.186;2023-05-07T08:02:41;6.57;;;5.60;;
59530;SDS011;45349;48.692;8.186;2023-05-07T08:05:12;9.37;;;6.03;;
59530;SDS011;45349;48.692;8.186;2023-05-07T08:07:39;7.13;;;5.70;;
59530;SDS011;45349;48.692;8.186;2023-05-07T08:10:06;7.37;;;5.73;;
59530;SDS011;45349;48.692;8.186;2023-05-07T08:12:33;9.77;;;5.10;;
59530;SDS011;45349;48.692;8.186;2023-05-07T08:15:00;7.10;;;5.10;;
59530;SDS011;45349;48.692;8.186;2023-05-07T08:17:27;6.10;;;5.50;;
59530;SDS011;45349;48.692;8.186;2023-05-07T08:19:55;6.87;;;5.83;;
59530;SDS011;45349;48.692;8.186;2023-05-07T08:22:23;7.03;;;5.57;;
59530;SDS011;45349;48.692;8.186;2023-05-07T08:24:50;8.93;;;5.67;;
59530;SDS011;45349;48.692;8.186;2023-05-07T08:27:19;6.83;;;5.63;;
59530;SDS011;45349;48.692;8.186;2023-05-07T08:29:47;8.23;;;4.90;;
59530;SDS011;45349;48.692;8.186;2023-05-07T08:32:17;5.97;;;4.97;;
59530;SDS011;45349;48.692;8.186;2023-05-07T08:34:47;8.60;;;5.70;;
59530;SDS011;45349;48.692;8.186;2023-05-07T08:37:14;6.10;;;5.30;;
59530;SDS011;45349;48.692;8.186;2023-05-07T08:40:07;9.70;;;5.60;;
59530;SDS011;45349;48.692;8.186;2023-05-07T08:42:36;5.20;;;4.57;;
59530;SDS011;45349;48.692;8.186;2023-05-07T08:45:03;6.40;;;4.90;;
59530;SDS011;45349;48.692;8.186;2023-05-07T08:47:39;8.30;;;4.27;;
59530;SDS011;45349;48.692;8.186;2023-05-07T08:50:09;4.60;;;4.20;;
59530;SDS011;45349;48.692;8.186;2023-05-07T08:52:36;6.43;;;4.60;;
59530;SDS011;45349;48.692;8.186;2023-05-07T08:55:04;5.90;;;4.53;;
59530;SDS011;45349;48.692;8.186;2023-05-07T08:57:34;5.77;;;4.20;;
59530;SDS011;45349;48.692;8.186;2023-05-07T09:00:02;4.60;;;4.10;;
59530;SDS011;45349;48.692;8.186;2023-05-07T09:02:29;6.57;;;4.13;;
59530;SDS011;45349;48.692;8.186;2023-05-07T09:04:56;4.93;;;3.23;;
59530;SDS011;45349;48.692;8.186;2023-05-07T09:07:23;7.47;;;3.87;;
59530;SDS011;45349;48.692;8.186;2023-05-07T09:09:51;7.27;;;4.30;;
59530;SDS011;45349;48.692;8.186;2023-05-07T09:12:18;4.13;;;3.73;;
59530;SDS011;45349;48.692;8.186;2023-05-07T09:14:48;4.83;;;3.97;;
59530;SDS011;45349;48.692;8.186;2023-05-07T09:17:16;7.43;;;3.80;;
59530;SDS011;45349;48.692;8.186;2023-05-07T09:19:48;4.37;;;3.97;;
59530;SDS011;45349;48.692;8.186;2023-05-07T09:22:15;6.07;;;4.30;;
59530;SDS011;45349;48.692;8.186;2023-05-07T09:24:57;7.50;;;3.93;;
59530;SDS011;45349;48.692;8.186;2023-05-07T09:27:26;4.43;;;3.90;;
59530;SDS011;45349;48.692;8.186;2023-05-07T09:29:56;5.77;;;3.60;;
59530;SDS011;45349;48.692;8.186;2023-05-07T09:32:23;5.20;;;3.23;;
59530;SDS011;45349;48.692;8.186;2023-05-07T09:34:52;5.80;;;4.33;;
59530;SDS011;45349;48.692;8.186;2023-05-07T09:37:22;6.10;;;3.57;;
59530;SDS011;45349;48.692;8.186;2023-05-07T09:39:49;3.67;;;3.17;;
59530;SDS011;45349;48.692;8.186;2023-05-07T09:42:22;6.60;;;3.60;;
59530;SDS011;45349;48.692;8.186;2023-05-07T09:44:50;7.20;;;3.80;;
59530;SDS011;45349;48.692;8.186;2023-05-07T09:47:23;6.63;;;3.93;;
59530;SDS011;45349;48.692;8.186;2023-05-07T09:49:54;5.10;;;4.43;;
59530;SDS011;45349;48.692;8.186;2023-05-07T09:52:23;6.13;;;4.57;;
59530;SDS011;45349;48.692;8.186;2023-05-07T09:54:54;7.07;;;5.27;;
59530;SDS011;45349;48.692;8.186;2023-05-07T09:57:26;6.10;;;3.60;;
59530;SDS011;45349;48.692;8.186;2023-05-07T09:59:59;6.27;;;3.97;;
59530;SDS011;45349;48.692;8.186;2023-05-07T10:02:36;7.33;;;3.40;;
59530;SDS011;45349;48.692;8.186;2023-05-07T10:05:11;4.43;;;3.50;;
59530;SDS011;45349;48.692;8.186;2023-05-07T10:07:39;9.10;;;4.00;;
59530;SDS011;45349;48.692;8.186;2023-05-07T10:10:08;5.43;;;4.00;;
59530;SDS011;45349;48.692;8.186;2023-05-07T10:12:39;6.37;;;4.00;;
59530;SDS011;45349;48.692;8.186;2023-05-07T10:15:12;10.07;;;5.27;;
59530;SDS011;45349;48.692;8.186;2023-05-07T10:17:44;7.37;;;4.40;;
59530;SDS011;45349;48.692;8.186;2023-05-07T10:20:11;5.53;;;4.00;;
59530;SDS011;45349;48.692;8.186;2023-05-07T10:22:43;5.97;;;4.67;;
59530;SDS011;45349;48.692;8.186;2023-05-07T10:25:14;6.83;;;4.87;;
59530;SDS011;45349;48.692;8.186;2023-05-07T10:27:45;6.50;;;4.90;;
59530;SDS011;45349;48.692;8.186;2023-05-07T10:30:15;6.30;;;4.03;;
59530;SDS011;45349;48.692;8.186;2023-05-07T10:32:55;6.93;;;5.10;;
59530;SDS011;45349;48.692;8.186;2023-05-07T10:35:31;5.80;;;4.23;;
59530;SDS011;45349;48.692;8.186;2023-05-07T10:38:02;7.43;;;3.70;;
59530;SDS011;45349;48.692;8.186;2023-05-07T10:40:32;6.77;;;4.10;;
59530;SDS011;45349;48.692;8.186;2023-05-07T10:43:01;7.07;;;4.90;;
59530;SDS011;45349;48.692;8.186;2023-05-07T10:45:34;7.67;;;4.23;;
59530;SDS011;45349;48.692;8.186;2023-05-07T10:48:08;5.30;;;4.27;;
59530;SDS011;45349;48.692;8.186;2023-05-07T10:50:36;4.63;;;4.00;;
59530;SDS011;45349;48.692;8.186;2023-05-07T10:53:24;6.90;;;4.97;;
59530;SDS011;45349;48.692;8.186;2023-05-07T10:56:26;4.50;;;4.00;;
59530;SDS011;45349;48.692;8.186;2023-05-07T11:02:12;5.93;;;3.97;;
59530;SDS011;45349;48.692;8.186;2023-05-07T11:08:05;4.80;;;3.83;;
59530;SDS011;45349;48.692;8.186;2023-05-07T11:10:50;6.57;;;5.57;;
59530;SDS011;45349;48.692;8.186;2023-05-07T11:13:41;6.47;;;4.93;;
59530;SDS011;45349;48.692;8.186;2023-05-07T11:16:16;8.93;;;5.63;;
59530;SDS011;45349;48.692;8.186;2023-05-07T11:18:46;7.70;;;5.50;;
59530;SDS011;45349;48.692;8.186;2023-05-07T11:21:15;7.67;;;4.53;;
59530;SDS011;45349;48.692;8.186;2023-05-07T11:24:14;5.23;;;3.90;;
59530;SDS011;45349;48.692;8.186;2023-05-07T11:26:53;4.37;;;3.50;;
59530;SDS011;45349;48.692;8.186;2023-05-07T11:29:22;6.32;;;3.72;;
59530;SDS011;45349;48.692;8.186;2023-05-07T11:31:54;5.53;;;4.60;;
59530;SDS011;45349;48.692;8.186;2023-05-07T11:34:26;7.77;;;6.37;;
59530;SDS011;45349;48.692;8.186;2023-05-07T11:36:57;10.20;;;6.87;;
59530;SDS011;45349;48.692;8.186;2023-05-07T11:39:37;6.50;;;5.90;;
59530;SDS011;45349;48.692;8.186;2023-05-07T11:42:04;8.53;;;6.10;;
59530;SDS011;45349;48.692;8.186;2023-05-07T11:44:41;6.73;;;5.83;;
59530;SDS011;45349;48.692;8.186;2023-05-07T11:47:08;7.83;;;5.13;;
59530;SDS011;45349;48.692;8.186;2023-05-07T11:49:36;8.30;;;6.37;;
59530;SDS011;45349;48.692;8.186;2023-05-07T11:52:04;7.83;;;6.10;;
59530;SDS011;45349;48.692;8.186;2023-05-07T11:54:34;6.87;;;5.57;;
59530;SDS011;45349;48.692;8.186;2023-05-07T11:57:02;8.63;;;6.30;;
59530;SDS011;45349;48.692;8.186;2023-05-07T11:59:29;8.53;;;6.27;;
59530;SDS011;45349;48.692;8.186;2023-05-07T12:01:56;8.10;;;5.70;;
59530;SDS011;45349;48.692;8.186;2023-05-07T12:04:24;5.50;;;4.90;;
59530;SDS011;45349;48.692;8.186;2023-05-07T12:06:53;7.43;;;4.53;;
59530;SDS011;45349;48.692;8.186;2023-05-07T12:09:22;8.80;;;4.70;;
59530;SDS011;45349;48.692;8.186;2023-05-07T12:11:48;5.77;;;4.40;;
59530;SDS011;45349;48.692;8.186;2023-05-07T12:14:15;5.73;;;4.10;;
59530;SDS011;45349;48.692;8.186;2023-05-07T12:16:42;5.87;;;4.00;;
59530;SDS011;45349;48.692;8.186;2023-05-07T12:19:09;5.23;;;3.87;;
59530;SDS011;45349;48.692;8.186;2023-05-07T12:21:38;5.27;;;4.03;;
59530;SDS011;45349;48.692;8.186;2023-05-07T12:24:05;6.20;;;3.60;;
59530;SDS011;45349;48.692;8.186;2023-05-07T12:26:33;4.60;;;3.60;;
59530;SDS011;45349;48.692;8.186;2023-05-07T12:29:04;5.43;;;3.50;;
59530;SDS011;45349;48.692;8.186;2023-05-07T12:31:30;6.80;;;3.47;;
59530;SDS011;45349;48.692;8.186;2023-05-07T12:33:57;5.40;;;4.00;;
59530;SDS011;45349;48.692;8.186;2023-05-07T12:36:24;6.63;;;3.90;;
59530;SDS011;45349;48.692;8.186;2023-05-07T12:38:51;6.20;;;3.67;;
59530;SDS011;45349;48.692;8.186;2023-05-07T12:41:17;6.60;;;3.67;;
59530;SDS011;45349;48.692;8.186;2023-05-07T12:43:45;3.90;;;3.50;;
59530;SDS011;45349;48.692;8.186;2023-05-07T12:46:12;5.93;;;3.87;;
59530;SDS011;45349;48.692;8.186;2023-05-07T12:48:43;4.73;;;3.57;;
59530;SDS011;45349;48.692;8.186;2023-05-07T12:51:10;4.90;;;3.50;;
59530;SDS011;45349;48.692;8.186;2023-05-07T12:53:39;7.10;;;3.30;;
59530;SDS011;45349;48.692;8.186;2023-05-07T12:56:07;7.20;;;3.70;;
59530;SDS011;45349;48.692;8.186;2023-05-07T12:58:34;7.50;;;4.40;;
59530;SDS011;45349;48.692;8.186;2023-05-07T13:01:05;9.53;;;4.43;;
59530;SDS011;45349;48.692;8.186;2023-05-07T13:03:33;5.63;;;3.87;;
59530;SDS011;45349;48.692;8.186;2023-05-07T13:06:01;9.73;;;4.13;;
59530;SDS011;45349;48.692;8.186;2023-05-07T13:08:30;5.53;;;4.50;;
59530;SDS011;45349;48.692;8.186;2023-05-07T13:10:57;6.37;;;4.13;;
59530;SDS011;45349;48.692;8.186;2023-05-07T13:13:28;7.20;;;4.83;;
59530;SDS011;45349;48.692;8.186;2023-05-07T13:15:54;8.03;;;4.07;;
59530;SDS011;45349;48.692;8.186;2023-05-07T13:18:23;6.23;;;3.67;;
59530;SDS011;45349;48.692;8.186;2023-05-07T13:20:50;4.67;;;4.00;;
59530;SDS011;45349;48.692;8.186;2023-05-07T13:23:17;4.53;;;3.57;;
59530;SDS011;45349;48.692;8.186;2023-05-07T13:25:44;3.33;;;2.93;;
59530;SDS011;45349;48.692;8.186;2023-05-07T13:28:10;5.50;;;2.80;;
59530;SDS011;45349;48.692;8.186;2023-05-07T13:30:37;5.00;;;2.70;;
59530;SDS011;45349;48.692;8.186;2023-05-07T13:33:05;4.37;;;2.40;;
59530;SDS011;45349;48.692;8.186;2023-05-07T13:35:34;2.87;;;2.20;;
59530;SDS011;45349;48.692;8.186;2023-05-07T13:38:01;3.67;;;2.60;;
59530;SDS011;45349;48.692;8.186;2023-05-07T13:40:27;2.53;;;2.33;;
59530;SDS011;45349;48.692;8.186;2023-05-07T13:42:56;5.03;;;3.10;;
59530;SDS011;45349;48.692;8.186;2023-05-07T13:45:23;4.30;;;2.80;;
59530;SDS011;45349;48.692;8.186;2023-05-07T13:47:51;2.70;;;2.40;;
59530;SDS011;45349;48.692;8.186;2023-05-07T13:50:18;5.53;;;2.70;;
59530;SDS011;45349;48.692;8.186;2023-05-07T13:52:46;4.00;;;2.60;;
59530;SDS011;45349;48.692;8.186;2023-05-07T13:55:15;6.60;;;2.67;;
59530;SDS011;45349;48.692;8.186;2023-05-07T13:57:42;5.00;;;2.80;;
59530;SDS011;45349;48.692;8.186;2023-05-07T14:00:12;7.27;;;3.00;;
59530;SDS011;45349;48.692;8.186;2023-05-07T14:02:42;3.77;;;2.50;;
59530;SDS011;45349;48.692;8.186;2023-05-07T14:05:08;5.60;;;3.27;;
59530;SDS011;45349;48.692;8.186;2023-05-07T14:07:35;3.33;;;2.50;;
59530;SDS011;45349;48.692;8.186;2023-05-07T14:10:04;7.30;;;2.77;;
59530;SDS011;45349;48.692;8.186;2023-05-07T14:12:31;4.20;;;2.20;;
59530;SDS011;45349;48.692;8.186;2023-05-07T14:14:58;3.27;;;2.40;;
59530;SDS011;45349;48.692;8.186;2023-05-07T14:17:25;3.13;;;2.80;;
59530;SDS011;45349;48.692;8.186;2023-05-07T14:19:52;4.47;;;3.10;;
59530;SDS011;45349;48.692;8.186;2023-05-07T14:22:20;5.80;;;3.00;;
59530;SDS011;45349;48.692;8.186;2023-05-07T14:24:47;3.90;;;3.20;;
59530;SDS011;45349;48.692;8.186;2023-05-07T14:27:16;3.23;;;2.90;;
59530;SDS011;45349;48.692;8.186;2023-05-07T14:29:47;4.13;;;3.20;;
59530;SDS011;45349;48.692;8.186;2023-05-07T14:32:16;5.00;;;3.00;;
59530;SDS011;45349;48.692;8.186;2023-05-07T14:34:47;8.67;;;4.80;;
59530;SDS011;45349;48.692;8.186;2023-05-07T14:37:15;6.63;;;5.13;;
59530;SDS011;45349;48.692;8.186;2023-05-07T14:39:47;9.77;;;5.63;;
59530;SDS011;45349;48.692;8.186;2023-05-07T14:42:15;6.53;;;4.93;;
59530;SDS011;45349;48.692;8.186;2023-05-07T14:44:47;8.53;;;5.80;;
59530;SDS011;45349;48.692;8.186;2023-05-07T14:47:14;7.90;;;5.47;;
59530;SDS011;45349;48.692;8.186;2023-05-07T14:49:47;8.90;;;5.50;;
59530;SDS011;45349;48.692;8.186;2023-05-07T14:52:14;7.37;;;5.77;;
59530;SDS011;45349;48.692;8.186;2023-05-07T14:55:05;11.77;;;6.47;;
59530;SDS011;45349;48.692;8.186;2023-05-07T14:57:34;7.93;;;5.07;;
59530;SDS011;45349;48.692;8.186;2023-05-07T15:00:01;8.60;;;5.70;;
59530;SDS011;45349;48.692;8.186;2023-05-07T15:02:29;6.40;;;5.70;;
59530;SDS011;45349;48.692;8.186;2023-05-07T15:04:56;10.33;;;6.47;;
59530;SDS011;45349;48.692;8.186;2023-05-07T15:07:23;9.00;;;4.87;;
59530;SDS011;45349;48.692;8.186;2023-05-07T15:09:50;10.60;;;4.33;;
59530;SDS011;45349;48.692;8.186;2023-05-07T15:12:17;16.60;;;6.53;;